createdAt,value
2022-08-02T00:01:08.082Z,4.30
2022-08-02T00:03:35.749Z,4.60
2022-08-02T00:06:03.467Z,4.30
2022-08-02T00:08:33.865Z,4.50
2022-08-02T00:11:01.537Z,4.90
2022-08-02T00:13:29.226Z,4.10
2022-08-02T00:15:56.845Z,4.80
2022-08-02T00:18:24.397Z,4.40
2022-08-02T00:20:52.087Z,4.60
2022-08-02T00:23:19.720Z,4.50
2022-08-02T00:25:55.167Z,4.20
2022-08-02T00:28:27.943Z,4.90
2022-08-02T00:30:59.168Z,4.60
2022-08-02T00:34:27.488Z,5.40
2022-08-02T00:36:15.405Z,4.20
2022-08-02T00:38:43.036Z,4.80
2022-08-02T00:41:17.224Z,4.70
2022-08-02T00:43:46.664Z,4.40
2022-08-02T00:46:15.503Z,4.80
2022-08-02T00:48:43.474Z,4.20
2022-08-02T00:51:12.438Z,4.80
2022-08-02T00:53:40.101Z,5.20
2022-08-02T00:56:10.581Z,4.70
2022-08-02T00:58:38.822Z,5.00
2022-08-02T01:01:07.491Z,5.20
2022-08-02T01:03:35.170Z,5.20
2022-08-02T01:06:17.949Z,5.30
2022-08-02T01:08:45.983Z,4.90
2022-08-02T01:11:14.307Z,5.50
2022-08-02T01:13:42.203Z,5.50
2022-08-02T01:16:19.246Z,5.30
2022-08-02T01:18:54.557Z,4.90
2022-08-02T01:21:58.574Z,4.90
2022-08-02T01:24:47.347Z,5.70
2022-08-02T01:27:56.945Z,5.90
2022-08-02T01:30:25.866Z,5.00
2022-08-02T01:32:59.169Z,5.50
2022-08-02T01:35:50.865Z,5.10
2022-08-02T01:38:33.903Z,4.80
2022-08-02T01:41:05.845Z,5.30
2022-08-02T01:43:36.622Z,4.60
2022-08-02T01:46:05.978Z,4.60
2022-08-02T01:48:35.442Z,4.70
2022-08-02T01:51:05.276Z,4.90
2022-08-02T01:53:35.384Z,5.40
2022-08-02T01:56:05.722Z,6.10
2022-08-02T01:58:37.495Z,5.30
2022-08-02T02:01:08.268Z,5.20
2022-08-02T02:03:41.787Z,4.70
2022-08-02T02:06:11.917Z,4.60
2022-08-02T02:08:43.464Z,5.60
2022-08-02T02:12:14.450Z,4.50
2022-08-02T02:14:02.777Z,5.30
2022-08-02T02:16:32.123Z,5.60
2022-08-02T02:19:03.358Z,4.70
2022-08-02T02:21:31.435Z,6.00
2022-08-02T02:24:00.003Z,6.10
2022-08-02T02:26:31.466Z,5.70
2022-08-02T02:29:04.624Z,4.50
2022-08-02T02:31:38.736Z,5.50
2022-08-02T02:36:42.293Z,5.00
2022-08-02T02:39:14.414Z,5.60
2022-08-02T02:41:44.723Z,5.00
2022-08-02T02:44:16.595Z,4.90
2022-08-02T02:46:45.183Z,4.90
2022-08-02T02:49:18.142Z,5.10
2022-08-02T02:51:46.904Z,4.70
2022-08-02T02:54:31.016Z,5.90
2022-08-02T02:57:05.727Z,5.30
2022-08-02T02:59:36.077Z,5.70
2022-08-02T03:02:12.333Z,4.70
2022-08-02T03:04:57.194Z,5.00
2022-08-02T03:07:27.085Z,6.00
2022-08-02T03:09:55.284Z,5.10
2022-08-02T03:12:30.187Z,5.10
2022-08-02T03:15:08.201Z,4.80
2022-08-02T03:17:41.236Z,5.10
2022-08-02T03:20:20.334Z,6.20
2022-08-02T03:22:49.067Z,5.30
2022-08-02T03:25:18.557Z,5.50
2022-08-02T03:27:46.967Z,6.20
2022-08-02T03:32:47.393Z,6.50
2022-08-02T03:35:23.365Z,6.30
2022-08-02T03:37:55.823Z,5.20
2022-08-02T03:40:25.198Z,4.70
2022-08-02T03:42:54.726Z,5.20
2022-08-02T03:45:24.475Z,6.70
2022-08-02T03:47:52.595Z,4.90
2022-08-02T03:50:23.143Z,5.40
2022-08-02T03:52:52.127Z,4.90
2022-08-02T03:55:19.857Z,6.80
2022-08-02T03:57:48.074Z,6.30
2022-08-02T04:00:21.055Z,6.90
2022-08-02T04:02:49.624Z,5.40
2022-08-02T04:05:18.433Z,5.90
2022-08-02T04:08:32.840Z,6.80
2022-08-02T04:10:56.151Z,6.80
2022-08-02T04:13:31.622Z,5.40
2022-08-02T04:16:20.225Z,6.40
2022-08-02T04:19:01.758Z,5.90
2022-08-02T04:21:48.615Z,6.00
2022-08-02T04:24:32.181Z,5.80
2022-08-02T04:27:19.427Z,6.20
2022-08-02T04:29:51.275Z,5.30
2022-08-02T04:32:20.676Z,6.30
2022-08-02T04:38:08.816Z,4.50
2022-08-02T04:40:31.037Z,5.00
2022-08-02T04:42:59.878Z,5.60
2022-08-02T04:45:29.530Z,6.10
2022-08-02T04:48:05.904Z,5.90
2022-08-02T04:50:35.744Z,5.20
2022-08-02T04:53:04.310Z,5.60
2022-08-02T04:55:32.545Z,5.20
2022-08-02T04:58:03.764Z,5.60
2022-08-02T05:00:35.263Z,5.20
2022-08-02T05:03:03.073Z,4.70
2022-08-02T05:05:30.866Z,5.60
2022-08-02T05:07:58.435Z,5.70
2022-08-02T05:10:26.128Z,5.90
2022-08-02T05:12:54.184Z,5.70
2022-08-02T05:15:21.777Z,4.50
2022-08-02T05:17:52.315Z,5.00
2022-08-02T05:20:20.157Z,4.60
2022-08-02T05:22:47.785Z,4.90
2022-08-02T05:25:15.815Z,5.10
2022-08-02T05:27:43.856Z,4.80
2022-08-02T05:30:12.523Z,5.70
2022-08-02T05:32:45.446Z,5.20
2022-08-02T05:35:14.134Z,4.20
2022-08-02T05:37:43.769Z,4.20
2022-08-02T05:40:18.341Z,4.60
2022-08-02T05:42:55.836Z,4.90
2022-08-02T05:45:24.730Z,5.30
2022-08-02T05:47:53.106Z,4.70
2022-08-02T05:50:22.008Z,4.30
2022-08-02T05:53:06.695Z,4.40
2022-08-02T05:55:40.345Z,4.80
2022-08-02T05:58:36.702Z,4.80
2022-08-02T06:01:05.911Z,4.30
2022-08-02T06:03:44.365Z,4.80
2022-08-02T06:06:16.044Z,5.00
2022-08-02T06:08:47.956Z,4.80
2022-08-02T06:11:23.977Z,4.80
2022-08-02T06:13:54.165Z,5.10
2022-08-02T06:16:31.777Z,4.80
2022-08-02T06:19:01.632Z,4.20
2022-08-02T06:22:31.513Z,4.60
2022-08-02T06:24:22.421Z,4.80
2022-08-02T06:26:55.106Z,5.30
2022-08-02T06:29:23.868Z,4.20
2022-08-02T06:31:53.601Z,4.10
2022-08-02T06:34:21.215Z,4.40
2022-08-02T06:37:05.988Z,4.50
2022-08-02T06:39:50.782Z,3.50
2022-08-02T06:42:27.561Z,4.20
2022-08-02T06:44:57.803Z,4.80
2022-08-02T06:47:26.941Z,5.00
2022-08-02T06:49:57.049Z,4.00
2022-08-02T06:52:29.434Z,4.80
2022-08-02T06:55:04.445Z,4.20
2022-08-02T06:57:33.691Z,4.60
2022-08-02T07:00:03.723Z,4.70
2022-08-02T07:02:32.021Z,4.20
2022-08-02T07:04:59.673Z,4.80
2022-08-02T07:07:28.475Z,4.00
2022-08-02T07:10:00.798Z,4.40
2022-08-02T07:12:31.484Z,4.00
2022-08-02T07:15:01.288Z,4.60
2022-08-02T07:17:30.155Z,4.50
2022-08-02T07:19:59.430Z,4.70
2022-08-02T07:22:28.439Z,5.00
2022-08-02T07:24:58.680Z,4.20
2022-08-02T07:27:28.195Z,4.90
2022-08-02T07:29:56.891Z,3.90
2022-08-02T07:32:27.265Z,4.80
2022-08-02T07:34:56.285Z,5.10
2022-08-02T07:37:54.203Z,4.80
2022-08-02T07:40:19.907Z,4.60
2022-08-02T07:42:52.100Z,4.50
2022-08-02T07:45:21.623Z,4.20
2022-08-02T07:47:50.188Z,4.30
2022-08-02T07:50:20.337Z,4.20
2022-08-02T07:52:48.329Z,4.10
2022-08-02T07:57:46.645Z,4.50
2022-08-02T08:00:17.222Z,4.40
2022-08-02T08:02:46.263Z,3.80
2022-08-02T08:05:14.129Z,4.30
2022-08-02T08:07:41.712Z,3.90
2022-08-02T08:10:10.454Z,3.50
2022-08-02T08:12:38.647Z,3.90
2022-08-02T08:15:07.028Z,3.70
2022-08-02T08:17:35.205Z,3.40
2022-08-02T08:20:04.564Z,4.10
2022-08-02T08:22:32.077Z,3.90
2022-08-02T08:24:59.695Z,3.90
2022-08-02T08:29:55.002Z,4.10
2022-08-02T08:32:22.930Z,4.20
2022-08-02T08:34:51.241Z,3.90
2022-08-02T08:37:19.246Z,4.10
2022-08-02T08:42:30.741Z,4.10
2022-08-02T08:44:59.739Z,4.10
2022-08-02T08:47:36.505Z,4.00
2022-08-02T08:50:24.592Z,3.80
2022-08-02T08:53:07.354Z,3.90
2022-08-02T08:55:37.244Z,4.00
2022-08-02T08:58:06.088Z,3.70
2022-08-02T09:00:35.744Z,4.30
2022-08-02T09:03:08.470Z,4.30
2022-08-02T09:05:38.851Z,4.10
2022-08-02T09:08:07.189Z,4.20
2022-08-02T09:10:41.109Z,4.10
2022-08-02T09:13:38.473Z,3.70
2022-08-02T09:16:12.891Z,4.10
2022-08-02T09:18:45.301Z,3.80
2022-08-02T09:21:16.756Z,3.60
2022-08-02T09:23:50.895Z,3.70
2022-08-02T09:26:21.039Z,4.20
2022-08-02T09:28:51.520Z,4.50
2022-08-02T09:31:21.846Z,4.90
2022-08-02T09:33:55.397Z,4.60
2022-08-02T09:36:24.172Z,4.00
2022-08-02T09:39:02.693Z,4.40
2022-08-02T09:41:56.414Z,4.50
2022-08-02T09:44:48.647Z,4.50
2022-08-02T09:47:53.785Z,4.20
2022-08-02T09:50:57.431Z,4.30
2022-08-02T09:54:06.128Z,4.00
2022-08-02T09:56:54.033Z,4.20
2022-08-02T09:59:27.561Z,4.10
2022-08-02T10:01:58.892Z,4.40
2022-08-02T10:04:33.701Z,4.20
2022-08-02T10:07:05.229Z,4.50
2022-08-02T10:09:33.835Z,4.50
2022-08-02T10:12:03.491Z,4.00
2022-08-02T10:14:34.948Z,4.30
2022-08-02T10:17:05.155Z,4.80
2022-08-02T10:20:02.212Z,3.80
2022-08-02T10:22:24.204Z,4.00
2022-08-02T10:24:52.735Z,4.10
2022-08-02T10:27:21.940Z,4.50
2022-08-02T10:29:55.177Z,4.00
2022-08-02T10:32:31.034Z,4.20
2022-08-02T10:35:18.168Z,4.20
2022-08-02T10:37:52.184Z,4.20
2022-08-02T10:40:26.572Z,4.10
2022-08-02T10:43:00.688Z,4.10
2022-08-02T10:45:29.205Z,4.60
2022-08-02T10:50:47.940Z,3.80
2022-08-02T10:54:04.818Z,4.50
2022-08-02T10:56:54.196Z,4.50
2022-08-02T10:59:46.388Z,4.20
2022-08-02T11:03:05.238Z,4.10
2022-08-02T11:06:25.493Z,4.10
2022-08-02T11:09:32.827Z,4.00
2022-08-02T11:12:03.226Z,3.90
2022-08-02T11:14:48.637Z,4.30
2022-08-02T11:17:56.554Z,4.40
2022-08-02T11:24:05.092Z,4.20
2022-08-02T11:26:59.558Z,4.40
2022-08-02T11:30:00.730Z,4.40
2022-08-02T11:32:42.479Z,4.20
2022-08-02T11:35:11.273Z,4.00
2022-08-02T11:37:42.036Z,4.30
2022-08-02T11:40:19.346Z,4.30
2022-08-02T11:42:50.310Z,4.20
2022-08-02T11:45:21.009Z,3.90
2022-08-02T11:47:54.309Z,4.20
2022-08-02T11:50:29.860Z,4.10
2022-08-02T11:53:01.919Z,4.00
2022-08-02T11:55:33.278Z,5.10
2022-08-02T11:58:07.677Z,4.10
2022-08-02T12:00:53.370Z,4.30
2022-08-02T12:03:51.724Z,4.30
2022-08-02T12:06:49.206Z,3.90
2022-08-02T12:09:46.378Z,4.00
2022-08-02T12:12:40.220Z,4.10
2022-08-02T12:15:45.212Z,3.90
2022-08-02T12:18:35.559Z,3.50
2022-08-02T12:21:04.624Z,4.10
2022-08-02T12:23:32.266Z,3.90
2022-08-02T12:28:34.971Z,3.70
2022-08-02T12:31:03.204Z,3.70
2022-08-02T12:33:49.891Z,3.80
2022-08-02T12:36:18.782Z,3.80
2022-08-02T12:38:59.278Z,3.70
2022-08-02T12:41:31.654Z,3.90
2022-08-02T12:44:01.236Z,3.80
2022-08-02T12:46:31.446Z,4.10
2022-08-02T12:49:20.043Z,4.20
2022-08-02T12:51:56.548Z,3.70
2022-08-02T12:54:34.586Z,3.40
2022-08-02T12:57:13.636Z,3.10
2022-08-02T12:59:45.043Z,3.80
2022-08-02T13:02:14.691Z,3.70
2022-08-02T13:04:50.238Z,4.20
2022-08-02T13:07:19.505Z,4.20
2022-08-02T13:09:48.396Z,4.10
2022-08-02T13:12:17.165Z,4.00
2022-08-02T13:14:45.531Z,4.20
2022-08-02T13:17:13.270Z,4.10
2022-08-02T13:19:42.205Z,4.20
2022-08-02T13:22:10.714Z,3.70
2022-08-02T13:24:56.705Z,3.90
2022-08-02T13:27:26.736Z,4.00
2022-08-02T13:29:56.647Z,3.90
2022-08-02T13:32:30.026Z,3.60
2022-08-02T13:34:59.368Z,3.80
2022-08-02T13:37:27.404Z,3.90
2022-08-02T13:40:19.857Z,3.90
2022-08-02T13:42:46.552Z,4.10
2022-08-02T13:45:17.676Z,3.30
2022-08-02T13:47:57.910Z,3.50
2022-08-02T13:50:36.655Z,3.30
2022-08-02T13:53:06.903Z,3.70
2022-08-02T13:55:35.955Z,3.50
2022-08-02T13:58:05.617Z,4.30
2022-08-02T14:00:36.317Z,4.00
2022-08-02T14:03:12.367Z,3.30
2022-08-02T14:05:48.477Z,3.40
2022-08-02T14:08:20.952Z,3.70
2022-08-02T14:13:22.698Z,4.20
2022-08-02T14:15:52.015Z,3.70
2022-08-02T14:18:20.391Z,3.90
2022-08-02T14:20:49.807Z,3.90
2022-08-02T14:23:19.105Z,3.80
2022-08-02T14:26:26.651Z,3.70
2022-08-02T14:28:58.567Z,3.60
2022-08-02T14:31:31.199Z,4.00
2022-08-02T14:34:01.926Z,3.70
2022-08-02T14:36:31.354Z,3.70
2022-08-02T14:39:03.745Z,4.10
2022-08-02T14:41:59.235Z,3.50
2022-08-02T14:44:28.024Z,3.80
2022-08-02T14:46:57.299Z,3.60
2022-08-02T14:49:29.634Z,3.80
2022-08-02T14:52:04.797Z,4.40
2022-08-02T14:54:41.864Z,3.90
2022-08-02T14:57:11.343Z,3.10
2022-08-02T14:59:42.536Z,4.00
2022-08-02T15:02:13.446Z,4.10
2022-08-02T15:04:49.013Z,4.20
2022-08-02T15:07:20.695Z,4.00
2022-08-02T15:12:27.885Z,4.40
2022-08-02T15:15:03.254Z,4.00
2022-08-02T15:17:37.246Z,4.20
2022-08-02T15:20:24.614Z,3.70
2022-08-02T15:22:57.085Z,3.50
2022-08-02T15:25:27.858Z,4.40
2022-08-02T15:27:59.348Z,4.30
2022-08-02T15:30:34.949Z,4.00
2022-08-02T15:33:05.360Z,4.10
2022-08-02T15:35:34.960Z,3.60
2022-08-02T15:38:03.380Z,3.70
2022-08-02T15:40:31.593Z,3.80
2022-08-02T15:42:59.866Z,3.80
2022-08-02T15:45:28.593Z,4.60
2022-08-02T15:47:57.567Z,4.40
2022-08-02T15:50:27.465Z,4.40
2022-08-02T15:52:56.093Z,4.10
2022-08-02T15:55:24.525Z,4.00
2022-08-02T15:57:52.807Z,4.10
2022-08-02T16:00:22.387Z,4.30
2022-08-02T16:02:51.010Z,3.90
2022-08-02T16:05:21.112Z,4.20
2022-08-02T16:07:51.039Z,4.20
2022-08-02T16:10:19.721Z,4.20
2022-08-02T16:12:48.242Z,3.90
2022-08-02T16:15:16.778Z,4.30
2022-08-02T16:17:48.362Z,3.70
2022-08-02T16:20:22.921Z,3.80
2022-08-02T16:22:51.233Z,4.20
2022-08-02T16:25:20.016Z,4.00
2022-08-02T16:27:59.504Z,4.00
2022-08-02T16:30:35.974Z,4.10
2022-08-02T16:33:04.934Z,4.20
2022-08-02T16:35:35.248Z,3.80
2022-08-02T16:38:04.356Z,4.50
2022-08-02T16:40:35.091Z,4.20
2022-08-02T16:43:09.186Z,3.90
2022-08-02T16:45:38.031Z,3.80
2022-08-02T16:48:09.042Z,3.70
2022-08-02T16:50:38.947Z,4.10
2022-08-02T16:53:08.091Z,3.80
2022-08-02T16:55:37.261Z,4.00
2022-08-02T16:58:09.511Z,4.00
2022-08-02T17:00:39.114Z,4.00
2022-08-02T17:03:15.790Z,4.50
2022-08-02T17:05:56.446Z,4.90
2022-08-02T17:08:32.060Z,4.50
2022-08-02T17:11:03.744Z,4.00
2022-08-02T17:13:34.414Z,3.90
2022-08-02T17:16:25.943Z,4.30
2022-08-02T17:18:56.424Z,4.20
2022-08-02T17:21:24.011Z,4.50
2022-08-02T17:24:04.871Z,3.90
2022-08-02T17:26:38.271Z,4.80
2022-08-02T17:29:16.232Z,4.20
2022-08-02T17:32:05.304Z,4.30
2022-08-02T17:34:37.395Z,4.40
2022-08-02T17:37:06.564Z,3.90
2022-08-02T17:39:51.463Z,4.20
2022-08-02T17:42:23.617Z,4.10
2022-08-02T17:44:55.279Z,4.80
2022-08-02T17:47:42.147Z,4.40
2022-08-02T17:50:12.519Z,3.60
2022-08-02T17:52:50.064Z,4.00
2022-08-02T17:55:21.365Z,4.00
2022-08-02T18:00:27.076Z,4.30
2022-08-02T18:02:55.594Z,4.00
2022-08-02T18:05:39.675Z,4.40
2022-08-02T18:08:13.915Z,4.00
2022-08-02T18:10:42.205Z,3.80
2022-08-02T18:13:11.798Z,4.30
2022-08-02T18:15:40.097Z,4.40
2022-08-02T18:18:08.258Z,4.10
2022-08-02T18:20:36.638Z,4.20
2022-08-02T18:23:05.402Z,4.00
2022-08-02T18:25:46.608Z,4.10
2022-08-02T18:28:16.364Z,3.90
2022-08-02T18:30:44.461Z,3.50
2022-08-02T18:33:57.374Z,4.10
2022-08-02T18:36:00.751Z,3.70
2022-08-02T18:38:30.281Z,4.00
2022-08-02T18:41:02.322Z,3.70
2022-08-02T18:43:37.203Z,3.50
2022-08-02T18:46:15.527Z,4.30
2022-08-02T18:48:46.585Z,4.10
2022-08-02T18:51:19.164Z,3.70
2022-08-02T18:53:52.465Z,3.70
2022-08-02T18:56:24.554Z,3.70
2022-08-02T18:58:54.557Z,3.80
2022-08-02T19:01:33.434Z,4.00
2022-08-02T19:04:04.697Z,4.10
2022-08-02T19:06:33.135Z,4.60
2022-08-02T19:09:11.047Z,4.20
2022-08-02T19:11:47.351Z,4.10
2022-08-02T19:14:27.675Z,3.30
2022-08-02T19:16:59.195Z,3.60
2022-08-02T19:19:29.142Z,4.00
2022-08-02T19:22:26.684Z,3.90
2022-08-02T19:24:47.714Z,3.90
2022-08-02T19:27:20.718Z,4.10
2022-08-02T19:29:54.536Z,4.10
2022-08-02T19:32:41.683Z,4.30
2022-08-02T19:35:19.421Z,3.80
2022-08-02T19:38:07.332Z,4.10
2022-08-02T19:40:35.577Z,3.90
2022-08-02T19:44:27.202Z,3.80
2022-08-02T19:45:53.689Z,3.80
2022-08-02T19:48:27.008Z,3.70
2022-08-02T19:51:00.965Z,3.30
2022-08-02T19:56:20.972Z,3.60
2022-08-02T19:58:57.537Z,3.50
2022-08-02T20:01:36.880Z,4.00
2022-08-02T20:04:13.510Z,3.70
2022-08-02T20:06:47.496Z,3.90
2022-08-02T20:11:54.431Z,4.10
2022-08-02T20:14:26.945Z,3.90
2022-08-02T20:17:01.147Z,3.60
2022-08-02T20:19:29.804Z,3.60
2022-08-02T20:22:00.140Z,3.90
2022-08-02T20:27:04.753Z,4.00
2022-08-02T20:29:44.781Z,3.70
2022-08-02T20:32:27.440Z,3.60
2022-08-02T20:35:02.106Z,3.90
2022-08-02T20:37:59.845Z,3.60
2022-08-02T20:40:27.224Z,4.10
2022-08-02T20:42:57.805Z,4.40
2022-08-02T20:45:28.064Z,3.70
2022-08-02T20:48:03.685Z,4.10
2022-08-02T20:50:49.208Z,4.40
2022-08-02T20:53:24.182Z,4.30
2022-08-02T20:56:09.374Z,4.50
2022-08-02T20:58:42.554Z,4.20
2022-08-02T21:01:13.214Z,4.60
2022-08-02T21:03:40.874Z,3.70
2022-08-02T21:06:15.133Z,3.90
2022-08-02T21:08:46.391Z,4.20
2022-08-02T21:11:15.136Z,4.10
2022-08-02T21:14:05.741Z,4.40
2022-08-02T21:16:37.250Z,4.30
2022-08-02T21:19:09.619Z,4.60
2022-08-02T21:21:42.774Z,4.90
2022-08-02T21:24:16.217Z,4.00
2022-08-02T21:26:48.846Z,4.60
2022-08-02T21:31:53.397Z,4.80
2022-08-02T21:34:27.507Z,4.70
2022-08-02T21:37:00.586Z,3.90
2022-08-02T21:39:40.377Z,3.80
2022-08-02T21:42:22.611Z,4.30
2022-08-02T21:44:59.601Z,4.60
2022-08-02T21:47:31.571Z,4.30
2022-08-02T21:50:13.278Z,4.30
2022-08-02T21:52:52.045Z,3.90
2022-08-02T21:55:24.164Z,4.30
2022-08-02T21:58:11.265Z,4.40
2022-08-02T22:00:40.000Z,4.40
2022-08-02T22:03:22.465Z,5.10
2022-08-02T22:05:51.813Z,4.70
2022-08-02T22:08:22.330Z,4.30
2022-08-02T22:11:01.255Z,4.70
2022-08-02T22:13:38.681Z,4.20
2022-08-02T22:16:15.758Z,4.50
2022-08-02T22:18:51.361Z,4.50
2022-08-02T22:24:12.845Z,3.70
2022-08-02T22:26:47.983Z,4.00
2022-08-02T22:29:16.885Z,3.90
2022-08-02T22:31:44.744Z,3.80
2022-08-02T22:34:26.879Z,4.20
2022-08-02T22:37:02.606Z,3.90
2022-08-02T22:39:35.354Z,4.40
2022-08-02T22:44:50.684Z,4.30
2022-08-02T22:47:20.763Z,4.50
2022-08-02T22:49:54.531Z,4.00
2022-08-02T22:52:25.217Z,3.80
2022-08-02T22:54:54.835Z,4.10
2022-08-02T22:57:30.011Z,4.20
2022-08-02T22:59:09.786Z,4.60
2022-08-02T22:59:11.273Z,4.50
2022-08-02T23:00:00.583Z,3.80
2022-08-02T23:02:28.376Z,4.10
2022-08-02T23:04:58.147Z,4.60
2022-08-02T23:07:25.677Z,4.20
2022-08-02T23:09:54.637Z,4.80
2022-08-02T23:12:22.734Z,4.00
2022-08-02T23:14:52.228Z,4.30
2022-08-02T23:17:38.790Z,3.90
2022-08-02T23:20:09.824Z,4.10
2022-08-02T23:22:37.876Z,4.40
2022-08-02T23:25:07.468Z,3.70
2022-08-02T23:27:35.644Z,4.30
2022-08-02T23:30:04.712Z,3.90
2022-08-02T23:32:32.534Z,4.20
2022-08-02T23:35:00.213Z,3.90
2022-08-02T23:37:27.845Z,3.90
2022-08-02T23:39:55.526Z,4.20
2022-08-02T23:42:25.400Z,4.30
2022-08-02T23:44:53.865Z,4.70
2022-08-02T23:47:21.490Z,4.40
2022-08-02T23:49:49.132Z,4.90
2022-08-02T23:52:17.047Z,4.40
2022-08-02T23:54:45.232Z,4.40
2022-08-02T23:57:20.673Z,3.80
2022-08-02T23:59:51.454Z,4.70
